Wan Hai 510 — 9VJJ8 — position and weather

sailwx.info

Track history (hours):
 
Tides and Currents Weather Stations Pressure Air Temp Water Temp Dewpoint Dewpoint Depression Visibility Wind Speed Wind Dir Waves Ship Positions

Wan Hai 510

Last reported at 2015-May-17 23:05 UTC. Time now 2015-May-24 17:22 UTC.
Position N 01°11' E 103°48'.

Length 269 m; draft 12 m.

Type: Cargo ship. MMSI: 565741000.

Date/timePositionNaut miles runAvg speedWind from/ knotsBaromVisibWave heightAir tempDewpointWater temp
2015-May-17 23:05N 01°11' E 103°48'5 9.7
2015-May-17 22:32N 01°15' E 103°51'1 0.9
2015-May-17 21:33N 01°16' E 103°51'0 0.0
2015-May-17 20:18N 01°16' E 103°51'0 0.0
2015-May-17 19:21N 01°16' E 103°51'0 0.0
2015-May-17 18:33N 01°16' E 103°51'0 0.0
2015-May-17 17:24N 01°16' E 103°51'0 0.0
2015-May-17 15:30N 01°16' E 103°51'0 0.0
2015-May-17 14:33N 01°16' E 103°51'0 0.0
2015-May-17 13:33N 01°16' E 103°51'0 0.0
2015-May-17 12:30N 01°16' E 103°51'0 0.1
2015-May-17 11:33N 01°16' E 103°51'5 5.2
2015-May-17 10:33N 01°14' E 103°56'  
2015-May-14 00:15N 22°14' E 114°08'710.0
2015-May-13 23:33N 22°20' E 114°05'1110.8
2015-May-13 22:33N 22°24' E 113°53'3 3.2
2015-May-13 21:30N 22°27' E 113°53'0 0.0
2015-May-13 20:33N 22°27' E 113°53'0 0.0
2015-May-13 19:33N 22°27' E 113°53'0 0.0
2015-May-13 18:33N 22°27' E 113°53'0 0.0
2015-May-13 17:33N 22°27' E 113°53'0 0.0
2015-May-13 16:33N 22°27' E 113°53'0 0.0
2015-May-13 15:33N 22°27' E 113°53'0 0.0
2015-May-13 14:33N 22°27' E 113°53'0 0.0
2015-May-13 13:27N 22°27' E 113°53'0 0.0
2015-May-13 12:33N 22°27' E 113°53'0 0.0
2015-May-13 11:33N 22°27' E 113°53'0 0.0
2015-May-13 10:33N 22°27' E 113°53'3 2.6
2015-May-13 09:33N 22°24' E 113°53'11 8.4
2015-May-13 08:12N 22°20' E 114°05'2 3.8
2015-May-13 07:33N 22°20' E 114°08'0 0.0
2015-May-13 06:25N 22°20' E 114°08'0 0.1
2015-May-13 05:28N 22°20' E 114°08'0 0.1
2015-May-13 04:25N 22°20' E 114°08'0 0.0
2015-May-13 03:28N 22°20' E 114°08'0 0.0
2015-May-13 02:31N 22°20' E 114°08'0 0.1
2015-May-13 01:28N 22°20' E 114°08'0 0.1
2015-May-13 00:25N 22°20' E 114°08'0 0.0
2015-May-12 23:25N 22°20' E 114°08'0 0.0
2015-May-12 22:31N 22°20' E 114°08'0 0.0
2015-May-12 21:31N 22°20' E 114°08'0 0.0
2015-May-12 20:31N 22°20' E 114°08'0 0.1
2015-May-12 19:31N 22°20' E 114°08'0 0.5
2015-May-12 18:33N 22°20' E 114°07'8 7.9
2015-May-12 17:32N 22°12' E 114°11'10 3.2
2015-May-12 14:31N 22°05' E 114°17'0 0.0
2015-May-12 13:07N 22°05' E 114°17'0 0.0
2015-May-12 12:13N 22°05' E 114°17'0 0.0
2015-May-12 10:19N 22°05' E 114°17'2 0.8
2015-May-12 07:33N 22°06' E 114°20'1414.5
2015-May-12 06:33N 22°09' E 114°35'27814.3
2015-May-11 11:06N 22°31' E 119°34'814.3
2015-May-11 10:33N 22°32' E 119°43'1414.3
2015-May-11 09:33N 22°33' E 119°58'1313.3
2015-May-11 08:33N 22°33' E 120°13'6 5.5
2015-May-11 07:33N 22°35' E 120°18'0 0.0
2015-May-11 06:25N 22°35' E 120°18'0 0.1
2015-May-11 05:31N 22°35' E 120°18'0 0.0
2015-May-11 04:25N 22°35' E 120°18'0 0.0
2015-May-11 03:25N 22°35' E 120°18'0 0.0
2015-May-11 02:31N 22°35' E 120°18'0 0.0
2015-May-11 01:25N 22°35' E 120°18'0 0.0
2015-May-10 23:31N 22°35' E 120°18'0 0.1
2015-May-10 22:31N 22°35' E 120°18'0 0.1
2015-May-10 21:25N 22°35' E 120°18'0 0.0
2015-May-10 20:25N 22°35' E 120°18'0 0.0
2015-May-10 19:33N 22°35' E 120°18'0 0.0
2015-May-10 18:31N 22°35' E 120°18'0 0.0
2015-May-10 17:31N 22°35' E 120°18'0 0.0
2015-May-10 16:25N 22°35' E 120°18'0 0.0
2015-May-10 15:31N 22°35' E 120°18'0 0.0
2015-May-10 14:31N 22°35' E 120°18'0 0.0
2015-May-10 13:22N 22°35' E 120°18'0 0.0
2015-May-10 12:28N 22°35' E 120°18'0 0.0
2015-May-10 11:28N 22°35' E 120°18'0 0.0
2015-May-10 10:28N 22°35' E 120°18'0 0.0
2015-May-10 09:28N 22°35' E 120°18'3 3.3
2015-May-10 08:33N 22°32' E 120°16'10 9.8
2015-May-10 07:33N 22°25' E 120°09'2119.2
2015-May-10 06:29N 22°08' E 119°56'1919.4
2015-May-10 05:29N 21°52' E 119°44'  
Track history (hours):
 
Tides and Currents Weather Stations Pressure Air Temp Water Temp Dewpoint Dewpoint Depression Visibility Wind Speed Wind Dir Waves Ship Positions

Wan Hai 510

Last reported at 2015-May-17 23:05 UTC. Time now 2015-May-24 17:22 UTC.
Position N 01°11' E 103°48'.

Length 269 m; draft 12 m.

Type: Cargo ship. MMSI: 565741000.

Date/timePositionNaut miles runAvg speedWind from/ knotsBaromVisibWave heightAir tempDewpointWater temp
2015-May-17 23:05N 01°11' E 103°48'5 9.7
2015-May-17 22:32N 01°15' E 103°51'1 0.9
2015-May-17 21:33N 01°16' E 103°51'0 0.0
2015-May-17 20:18N 01°16' E 103°51'0 0.0
2015-May-17 19:21N 01°16' E 103°51'0 0.0
2015-May-17 18:33N 01°16' E 103°51'0 0.0
2015-May-17 17:24N 01°16' E 103°51'0 0.0
2015-May-17 15:30N 01°16' E 103°51'0 0.0
2015-May-17 14:33N 01°16' E 103°51'0 0.0
2015-May-17 13:33N 01°16' E 103°51'0 0.0
2015-May-17 12:30N 01°16' E 103°51'0 0.1
2015-May-17 11:33N 01°16' E 103°51'5 5.2
2015-May-17 10:33N 01°14' E 103°56'  
2015-May-14 00:15N 22°14' E 114°08'710.0
2015-May-13 23:33N 22°20' E 114°05'1110.8
2015-May-13 22:33N 22°24' E 113°53'3 3.2
2015-May-13 21:30N 22°27' E 113°53'0 0.0
2015-May-13 20:33N 22°27' E 113°53'0 0.0
2015-May-13 19:33N 22°27' E 113°53'0 0.0
2015-May-13 18:33N 22°27' E 113°53'0 0.0
2015-May-13 17:33N 22°27' E 113°53'0 0.0
2015-May-13 16:33N 22°27' E 113°53'0 0.0
2015-May-13 15:33N 22°27' E 113°53'0 0.0
2015-May-13 14:33N 22°27' E 113°53'0 0.0
2015-May-13 13:27N 22°27' E 113°53'0 0.0
2015-May-13 12:33N 22°27' E 113°53'0 0.0
2015-May-13 11:33N 22°27' E 113°53'0 0.0
2015-May-13 10:33N 22°27' E 113°53'3 2.6
2015-May-13 09:33N 22°24' E 113°53'11 8.4
2015-May-13 08:12N 22°20' E 114°05'2 3.8
2015-May-13 07:33N 22°20' E 114°08'0 0.0
2015-May-13 06:25N 22°20' E 114°08'0 0.1
2015-May-13 05:28N 22°20' E 114°08'0 0.1
2015-May-13 04:25N 22°20' E 114°08'0 0.0
2015-May-13 03:28N 22°20' E 114°08'0 0.0
2015-May-13 02:31N 22°20' E 114°08'0 0.1
2015-May-13 01:28N 22°20' E 114°08'0 0.1
2015-May-13 00:25N 22°20' E 114°08'0 0.0
2015-May-12 23:25N 22°20' E 114°08'0 0.0
2015-May-12 22:31N 22°20' E 114°08'0 0.0
2015-May-12 21:31N 22°20' E 114°08'0 0.0
2015-May-12 20:31N 22°20' E 114°08'0 0.1
2015-May-12 19:31N 22°20' E 114°08'0 0.5
2015-May-12 18:33N 22°20' E 114°07'8 7.9
2015-May-12 17:32N 22°12' E 114°11'10 3.2
2015-May-12 14:31N 22°05' E 114°17'0 0.0
2015-May-12 13:07N 22°05' E 114°17'0 0.0
2015-May-12 12:13N 22°05' E 114°17'0 0.0
2015-May-12 10:19N 22°05' E 114°17'2 0.8
2015-May-12 07:33N 22°06' E 114°20'1414.5
2015-May-12 06:33N 22°09' E 114°35'27814.3
2015-May-11 11:06N 22°31' E 119°34'814.3
2015-May-11 10:33N 22°32' E 119°43'1414.3
2015-May-11 09:33N 22°33' E 119°58'1313.3
2015-May-11 08:33N 22°33' E 120°13'6 5.5
2015-May-11 07:33N 22°35' E 120°18'0 0.0
2015-May-11 06:25N 22°35' E 120°18'0 0.1
2015-May-11 05:31N 22°35' E 120°18'0 0.0
2015-May-11 04:25N 22°35' E 120°18'0 0.0
2015-May-11 03:25N 22°35' E 120°18'0 0.0
2015-May-11 02:31N 22°35' E 120°18'0 0.0
2015-May-11 01:25N 22°35' E 120°18'0 0.0
2015-May-10 23:31N 22°35' E 120°18'0 0.1
2015-May-10 22:31N 22°35' E 120°18'0 0.1
2015-May-10 21:25N 22°35' E 120°18'0 0.0
2015-May-10 20:25N 22°35' E 120°18'0 0.0
2015-May-10 19:33N 22°35' E 120°18'0 0.0
2015-May-10 18:31N 22°35' E 120°18'0 0.0
2015-May-10 17:31N 22°35' E 120°18'0 0.0
2015-May-10 16:25N 22°35' E 120°18'0 0.0
2015-May-10 15:31N 22°35' E 120°18'0 0.0
2015-May-10 14:31N 22°35' E 120°18'0 0.0
2015-May-10 13:22N 22°35' E 120°18'0 0.0
2015-May-10 12:28N 22°35' E 120°18'0 0.0
2015-May-10 11:28N 22°35' E 120°18'0 0.0
2015-May-10 10:28N 22°35' E 120°18'0 0.0
2015-May-10 09:28N 22°35' E 120°18'3 3.3
2015-May-10 08:33N 22°32' E 120°16'10 9.8
2015-May-10 07:33N 22°25' E 120°09'2119.2
2015-May-10 06:29N 22°08' E 119°56'1919.4
2015-May-10 05:29N 21°52' E 119°44'  

Dump ship's entire track history